Time;durP1;ratioP1;P1;durP2;ratioP2;P2;SDS_P1;SDS_P2;PMS_P1;PMS_P2;Temp;Humidity;BMP_temperature;BMP_pressure;BME280_temperature;BME280_humidity;BME280_pressure;Samples;Min_cycle;Max_cycle;Signal;HPM_P1;HPM_P2
2022/02/04 00:23:39;;;;;;;6.00;4.85;;;;;;;;;;4506889;28;20038;-72
2022/02/04 00:28:09;;;;;;;6.57;4.93;;;;;;;;;;4509754;28;20505;-72
2022/02/04 00:30:28;;;;;;;6.18;4.70;;;;;;;;;;4506867;28;20053;-72
2022/02/04 00:32:41;;;;;;;6.35;5.30;;;;;;;;;;4509448;28;20037;-71
2022/02/04 00:35:02;;;;;;;6.47;5.10;;;;;;;;;;4507926;28;20038;-71
2022/02/04 00:39:40;;;;;;;7.10;5.25;;;;;;;;;;4512144;28;20030;-71
2022/02/04 00:41:51;;;;;;;6.90;4.80;;;;;;;;;;4512813;28;20033;-71
2022/02/04 00:44:03;;;;;;;6.82;4.82;;;;;;;;;;4514204;28;20136;-71
2022/02/04 00:46:16;;;;;;;5.63;4.80;;;;;;;;;;4510799;28;20022;-71
2022/02/04 00:48:44;;;;;;;5.68;4.70;;;;;;;;;;4511333;28;20033;-71
2022/02/04 00:51:05;;;;;;;5.50;4.30;;;;;;;;;;4514798;28;20055;-72
2022/02/04 00:53:23;;;;;;;5.75;4.40;;;;;;;;;;4511625;28;20030;-71
2022/02/04 00:56:43;;;;;;;5.50;4.38;;;;;;;;;;4513051;28;20125;-72
2022/02/04 01:25:51;;;;;;;4.40;3.90;;;;;;;;;;4512946;28;20033;-71
2022/02/04 01:25:59;;;;;;;4.78;3.95;;;;;;;;;;4512395;28;21108;-71
2022/02/04 01:28:09;;;;;;;5.63;4.07;;;;;;;;;;4512272;28;20034;-71
2022/02/04 01:30:26;;;;;;;4.93;4.20;;;;;;;;;;4511638;28;23860;-70
2022/02/04 01:32:36;;;;;;;5.53;4.30;;;;;;;;;;4511614;28;20037;-70
2022/02/04 01:34:46;;;;;;;5.90;4.60;;;;;;;;;;4499503;28;29190;-71
2022/02/04 01:36:57;;;;;;;5.37;4.53;;;;;;;;;;4510956;28;20038;-71
2022/02/04 01:39:07;;;;;;;5.63;4.37;;;;;;;;;;4511225;28;29232;-71
2022/02/04 01:41:18;;;;;;;5.33;4.10;;;;;;;;;;4511288;28;23183;-71
2022/02/04 01:43:28;;;;;;;4.67;4.00;;;;;;;;;;4510761;28;32854;-71
2022/02/04 01:45:38;;;;;;;5.43;4.07;;;;;;;;;;4511117;28;20033;-71
2022/02/04 01:47:55;;;;;;;4.40;3.87;;;;;;;;;;4509905;28;38737;-71
2022/02/04 01:50:06;;;;;;;5.93;4.25;;;;;;;;;;4510707;28;20050;-71
2022/02/04 01:52:16;;;;;;;5.03;4.00;;;;;;;;;;4511329;28;20478;-71
2022/02/04 01:54:26;;;;;;;6.07;4.60;;;;;;;;;;4509165;28;20509;-71
2022/02/04 01:56:37;;;;;;;5.43;4.20;;;;;;;;;;4509624;28;35759;-71
2022/02/04 01:58:47;;;;;;;6.20;4.40;;;;;;;;;;4511142;28;20394;-71
2022/02/04 02:00:58;;;;;;;5.60;4.37;;;;;;;;;;4510119;28;21780;-71
2022/02/04 02:03:09;;;;;;;5.43;4.60;;;;;;;;;;4516827;28;20132;-71
2022/02/04 02:05:19;;;;;;;5.33;4.17;;;;;;;;;;4510591;28;20049;-71
2022/02/04 02:07:31;;;;;;;5.30;4.20;;;;;;;;;;4519433;28;20380;-71
2022/02/04 02:09:55;;;;;;;6.13;4.63;;;;;;;;;;4518685;28;20148;-71
2022/02/04 02:12:08;;;;;;;5.82;4.45;;;;;;;;;;4511890;28;20029;-71
2022/02/04 02:14:21;;;;;;;5.05;4.20;;;;;;;;;;4509727;28;20030;-70
2022/02/04 02:34:37;;;;;;;5.60;4.32;;;;;;;;;;4511189;28;20030;-71
2022/02/04 02:37:33;;;;;;;5.53;4.20;;;;;;;;;;4510041;28;20612;-71
2022/02/04 02:46:41;;;;;;;5.53;4.40;;;;;;;;;;4511323;28;20162;-71
2022/02/04 02:49:24;;;;;;;5.32;4.20;;;;;;;;;;4511080;28;20162;-71
2022/02/04 02:56:40;;;;;;;5.35;4.35;;;;;;;;;;4511548;28;20580;-71
2022/02/04 02:58:53;;;;;;;5.63;4.32;;;;;;;;;;4511045;28;20046;-71
2022/02/04 03:01:06;;;;;;;4.70;4.10;;;;;;;;;;4508519;28;20041;-71
2022/02/04 03:03:19;;;;;;;4.95;4.07;;;;;;;;;;4510117;28;20029;-72
2022/02/04 03:05:29;;;;;;;6.05;4.90;;;;;;;;;;4512066;28;20069;-71
2022/02/04 03:07:40;;;;;;;5.50;4.53;;;;;;;;;;4509259;28;20418;-72
2022/02/04 03:09:50;;;;;;;5.23;4.23;;;;;;;;;;4511116;28;20041;-71
2022/02/04 03:12:01;;;;;;;5.20;4.37;;;;;;;;;;4517748;28;24269;-71
2022/02/04 03:14:11;;;;;;;5.40;4.23;;;;;;;;;;4511557;28;20378;-71
2022/02/04 03:16:23;;;;;;;5.50;4.47;;;;;;;;;;4511775;28;20089;-71
2022/02/04 03:18:37;;;;;;;5.70;4.53;;;;;;;;;;4509871;28;20141;-71
2022/02/04 03:20:50;;;;;;;5.35;4.57;;;;;;;;;;4509624;28;20025;-71
2022/02/04 03:23:00;;;;;;;5.60;4.50;;;;;;;;;;4511046;28;20046;-71
2022/02/04 03:25:12;;;;;;;5.83;4.63;;;;;;;;;;4509636;28;20037;-71
2022/02/04 03:27:26;;;;;;;4.85;3.85;;;;;;;;;;4510444;28;20034;-71
2022/02/04 03:32:20;;;;;;;5.93;4.43;;;;;;;;;;4510860;28;20045;-71
2022/02/04 03:34:30;;;;;;;6.63;4.88;;;;;;;;;;4509431;28;20033;-71
2022/02/04 03:36:41;;;;;;;5.57;4.67;;;;;;;;;;4511263;28;20030;-71
2022/02/04 03:38:51;;;;;;;5.97;4.55;;;;;;;;;;4509004;28;20026;-70
2022/02/04 03:41:02;;;;;;;6.10;4.60;;;;;;;;;;4512664;28;22614;-71
2022/02/04 03:43:13;;;;;;;6.03;4.63;;;;;;;;;;4509027;28;20113;-71
2022/02/04 03:45:23;;;;;;;5.97;4.53;;;;;;;;;;4509080;28;20037;-71
2022/02/04 03:47:33;;;;;;;5.43;4.50;;;;;;;;;;4509312;28;21997;-71
2022/02/04 03:49:44;;;;;;;5.23;4.13;;;;;;;;;;4509972;28;40993;-71
2022/02/04 03:51:54;;;;;;;5.93;4.60;;;;;;;;;;4509329;28;20478;-71
2022/02/04 03:54:04;;;;;;;5.97;4.60;;;;;;;;;;4509936;28;20253;-71
2022/02/04 03:56:15;;;;;;;6.07;4.37;;;;;;;;;;4509057;28;34531;-71
2022/02/04 03:58:25;;;;;;;5.30;4.40;;;;;;;;;;4508030;28;20141;-71
2022/02/04 04:00:36;;;;;;;5.07;4.13;;;;;;;;;;4509549;28;20064;-71
2022/02/04 04:02:47;;;;;;;5.97;4.30;;;;;;;;;;4509151;28;38655;-71
2022/02/04 04:04:57;;;;;;;5.43;4.47;;;;;;;;;;4508643;28;20096;-71
2022/02/04 04:07:08;;;;;;;6.27;3.97;;;;;;;;;;4508795;28;30905;-71
2022/02/04 04:09:18;;;;;;;4.80;3.97;;;;;;;;;;4510044;28;20032;-71
2022/02/04 04:11:29;;;;;;;5.27;4.40;;;;;;;;;;4508524;28;20042;-71
2022/02/04 04:13:39;;;;;;;5.00;4.10;;;;;;;;;;4512960;28;20037;-71
2022/02/04 04:15:50;;;;;;;5.57;4.27;;;;;;;;;;4511681;28;20029;-71
2022/02/04 04:18:01;;;;;;;4.70;3.97;;;;;;;;;;4510318;28;22608;-71
2022/02/04 04:20:19;;;;;;;5.05;4.05;;;;;;;;;;4512064;28;20167;-71
2022/02/04 04:22:30;;;;;;;4.95;3.88;;;;;;;;;;4511748;28;20121;-71
2022/02/04 04:24:40;;;;;;;5.27;3.90;;;;;;;;;;4512349;28;20040;-71
2022/02/04 04:26:50;;;;;;;4.80;3.87;;;;;;;;;;4513521;28;20034;-71
2022/02/04 04:29:01;;;;;;;4.80;4.03;;;;;;;;;;4512342;28;40058;-71
2022/02/04 04:31:11;;;;;;;5.17;3.77;;;;;;;;;;4520342;28;20509;-70
2022/02/04 04:33:22;;;;;;;4.47;3.60;;;;;;;;;;4520140;28;44875;-70
2022/02/04 04:35:32;;;;;;;4.93;3.97;;;;;;;;;;4511998;28;44156;-71
2022/02/04 04:37:48;;;;;;;4.60;3.63;;;;;;;;;;4503938;28;20124;-71
2022/02/04 04:42:46;;;;;;;5.40;3.90;;;;;;;;;;4513128;28;20108;-70
2022/02/04 05:29:21;;;;;;;3.20;2.80;;;;;;;;;;4510840;28;20038;-71
2022/02/04 05:31:31;;;;;;;3.53;2.50;;;;;;;;;;4510457;28;20037;-70
2022/02/04 05:33:42;;;;;;;4.03;2.53;;;;;;;;;;4510634;28;20041;-70
2022/02/04 05:35:52;;;;;;;2.73;2.33;;;;;;;;;;4507789;28;20030;-70
2022/02/04 05:38:03;;;;;;;3.03;2.47;;;;;;;;;;4512144;28;21081;-70
2022/02/04 05:40:17;;;;;;;3.70;2.45;;;;;;;;;;4511558;28;20034;-70
2022/02/04 05:42:32;;;;;;;3.47;2.50;;;;;;;;;;4511526;28;20609;-70
2022/02/04 05:44:44;;;;;;;3.10;2.40;;;;;;;;;;4511480;28;20044;-70
2022/02/04 05:47:00;;;;;;;2.92;2.50;;;;;;;;;;4510352;28;20042;-70
2022/02/04 05:49:12;;;;;;;2.22;2.03;;;;;;;;;;4510795;28;20589;-70
2022/02/04 05:51:48;;;;;;;2.88;2.40;;;;;;;;;;4510792;28;20041;-70
2022/02/04 06:03:37;;;;;;;3.25;2.25;;;;;;;;;;4509843;28;20065;-70
2022/02/04 06:22:58;;;;;;;2.85;2.38;;;;;;;;;;4512898;28;20030;-70
2022/02/04 06:25:10;;;;;;;3.03;2.20;;;;;;;;;;4511326;28;20133;-70
2022/02/04 06:27:23;;;;;;;3.45;2.00;;;;;;;;;;4510220;28;20036;-71
2022/02/04 06:29:33;;;;;;;2.63;2.20;;;;;;;;;;4509937;28;20138;-70
2022/02/04 06:31:43;;;;;;;2.23;1.90;;;;;;;;;;4511500;28;20748;-69
2022/02/04 06:33:54;;;;;;;2.23;2.00;;;;;;;;;;4509944;28;20030;-70
2022/02/04 06:36:05;;;;;;;2.00;1.80;;;;;;;;;;4508576;28;20068;-70
2022/02/04 06:38:15;;;;;;;2.30;2.10;;;;;;;;;;4519908;28;20033;-70
2022/02/04 06:40:26;;;;;;;2.47;2.00;;;;;;;;;;4518242;28;27472;-70
2022/02/04 06:42:36;;;;;;;2.87;1.80;;;;;;;;;;4510152;28;26396;-70
2022/02/04 06:44:47;;;;;;;2.63;1.83;;;;;;;;;;4509928;28;21515;-70
2022/02/04 06:46:57;;;;;;;2.93;2.00;;;;;;;;;;4511935;28;22832;-70
2022/02/04 06:49:07;;;;;;;3.20;2.57;;;;;;;;;;4511907;28;43851;-70
2022/02/04 06:51:18;;;;;;;3.10;2.50;;;;;;;;;;4508822;28;24270;-70
2022/02/04 06:53:28;;;;;;;3.20;2.43;;;;;;;;;;4510011;28;20121;-70
2022/02/04 06:55:39;;;;;;;2.77;1.93;;;;;;;;;;4510554;28;22417;-70
2022/02/04 06:57:50;;;;;;;3.07;2.30;;;;;;;;;;4510210;28;20459;-70
2022/02/04 07:00:00;;;;;;;2.75;1.95;;;;;;;;;;4512433;28;20056;-70
2022/02/04 07:02:11;;;;;;;3.00;2.27;;;;;;;;;;4499171;28;20045;-70
2022/02/04 07:04:21;;;;;;;2.37;2.03;;;;;;;;;;4510669;28;27752;-70
2022/02/04 07:06:36;;;;;;;2.40;1.80;;;;;;;;;;4510688;28;20033;-70
2022/02/04 07:13:25;;;;;;;4.78;3.00;;;;;;;;;;4511602;28;20037;-69
2022/02/04 07:20:44;;;;;;;2.95;2.35;;;;;;;;;;4512511;28;20512;-69
2022/02/04 07:22:55;;;;;;;2.83;2.30;;;;;;;;;;4510817;28;20064;-69
2022/02/04 07:25:06;;;;;;;2.33;1.90;;;;;;;;;;4508828;28;20034;-69
2022/02/04 07:27:17;;;;;;;;;;;;;;;;;;4508568;28;20644;-69
2022/02/04 07:29:29;;;;;;;2.55;1.83;;;;;;;;;;4510636;28;20042;-69
2022/02/04 07:31:40;;;;;;;;;;;;;;;;;;4510315;28;20672;-69
2022/02/04 07:34:04;;;;;;;2.53;2.10;;;;;;;;;;4508747;28;20633;-69
2022/02/04 07:40:52;;;;;;;2.63;2.10;;;;;;;;;;4509062;28;20105;-69
2022/02/04 07:41:20;;;;;;;2.28;1.85;;;;;;;;;;4507219;28;20595;-69
2022/02/04 07:43:31;;;;;;;2.40;2.03;;;;;;;;;;4509868;28;20557;-69
2022/02/04 07:45:42;;;;;;;2.70;1.80;;;;;;;;;;4509215;28;20057;-69
2022/02/04 07:47:53;;;;;;;2.53;1.57;;;;;;;;;;4510802;28;20434;-69
2022/02/04 07:50:05;;;;;;;2.17;1.48;;;;;;;;;;4512537;28;20042;-69
2022/02/04 07:52:15;;;;;;;2.33;1.60;;;;;;;;;;4512923;28;20064;-69
2022/02/04 07:54:26;;;;;;;2.17;1.70;;;;;;;;;;4510840;28;20036;-70
2022/02/04 07:56:36;;;;;;;1.90;1.60;;;;;;;;;;4512578;28;34697;-69
2022/02/04 07:58:55;;;;;;;2.53;1.53;;;;;;;;;;4512862;28;20057;-69
2022/02/04 08:01:05;;;;;;;1.85;1.40;;;;;;;;;;4512074;28;20121;-69
2022/02/04 08:03:37;;;;;;;1.57;1.30;;;;;;;;;;4511567;28;20419;-69
2022/02/04 08:05:51;;;;;;;;;;;;;;;;;;4511435;28;20138;-69
2022/02/04 08:08:17;;;;;;;1.88;1.30;;;;;;;;;;4511102;28;19920;-69
2022/02/04 08:15:04;;;;;;;2.25;1.52;;;;;;;;;;4511829;28;20038;-69
2022/02/04 08:24:33;;;;;;;2.30;1.40;;;;;;;;;;4509261;28;20824;-70
2022/02/04 08:33:58;;;;;;;2.03;1.67;;;;;;;;;;4510713;28;20128;-69
2022/02/04 08:36:24;;;;;;;1.80;1.48;;;;;;;;;;4511436;28;20680;-69
2022/02/04 08:39:46;;;;;;;2.65;1.60;;;;;;;;;;4519134;28;20034;-69
2022/02/04 08:50:55;;;;;;;1.80;1.58;;;;;;;;;;4510846;28;20042;-69
2022/02/04 08:53:35;;;;;;;1.70;1.23;;;;;;;;;;4512214;28;20038;-69
2022/02/04 08:55:48;;;;;;;2.08;1.48;;;;;;;;;;4507901;28;20057;-69
2022/02/04 09:00:50;;;;;;;1.80;1.48;;;;;;;;;;4493183;28;20050;-69
2022/02/04 09:03:13;;;;;;;2.25;1.40;;;;;;;;;;4510797;28;20030;-69
2022/02/04 09:05:31;;;;;;;1.38;1.15;;;;;;;;;;4513505;28;20033;-69
2022/02/04 09:10:10;;;;;;;1.92;1.52;;;;;;;;;;4509747;28;20121;-70
2022/02/04 09:16:54;;;;;;;1.55;1.45;;;;;;;;;;4510260;28;20033;-70
2022/02/04 09:18:34;;;;;;;1.15;1.05;;;;;;;;;;4519050;28;20025;-69
2022/02/04 09:20:08;;;;;;;1.10;0.82;;;;;;;;;;4503614;28;20053;-69
2022/02/04 09:22:26;;;;;;;0.90;0.90;;;;;;;;;;4508368;28;20124;-69
2022/02/04 09:24:36;;;;;;;1.15;1.05;;;;;;;;;;4510989;28;20060;-69
2022/02/04 09:26:47;;;;;;;1.30;0.97;;;;;;;;;;4509531;28;35845;-69
2022/02/04 09:28:57;;;;;;;1.20;1.00;;;;;;;;;;4510196;28;20037;-69
2022/02/04 09:31:07;;;;;;;1.43;1.20;;;;;;;;;;4509667;28;20073;-69
2022/02/04 09:33:18;;;;;;;1.63;0.93;;;;;;;;;;4509615;28;20116;-69
2022/02/04 09:35:28;;;;;;;1.50;1.10;;;;;;;;;;4508468;28;29355;-69
2022/02/04 09:37:41;;;;;;;1.20;1.10;;;;;;;;;;4508218;28;29764;-70
2022/02/04 09:39:51;;;;;;;1.10;1.00;;;;;;;;;;4471082;28;1085862;-70
2022/02/04 09:42:02;;;;;;;1.33;1.00;;;;;;;;;;4510043;28;20033;-70
2022/02/04 09:44:12;;;;;;;1.47;0.70;;;;;;;;;;4511353;28;20418;-70
2022/02/04 09:46:23;;;;;;;1.33;0.90;;;;;;;;;;4511058;28;20463;-70
2022/02/04 09:48:33;;;;;;;0.80;0.80;;;;;;;;;;4511239;28;20474;-70
2022/02/04 09:50:48;;;;;;;0.93;0.90;;;;;;;;;;4519062;28;20049;-70
2022/02/04 10:15:28;;;;;;;0.73;0.50;;;;;;;;;;4525943;28;20132;-70
2022/02/04 10:17:40;;;;;;;0.50;0.50;;;;;;;;;;4509712;28;20033;-70
2022/02/04 10:19:57;;;;;;;0.95;0.52;;;;;;;;;;4509861;28;20847;-70
2022/02/04 10:22:08;;;;;;;0.60;0.60;;;;;;;;;;4507786;28;20144;-70
2022/02/04 10:24:23;;;;;;;0.70;0.70;;;;;;;;;;4510627;28;20113;-70
2022/02/04 10:26:33;;;;;;;0.40;0.40;;;;;;;;;;4509551;28;20025;-70
2022/02/04 10:28:45;;;;;;;2.03;0.60;;;;;;;;;;4509233;28;20037;-70
2022/02/04 10:31:05;;;;;;;;;;;;;;;;;;4501918;28;20042;-70
2022/02/04 10:33:16;;;;;;;0.60;0.43;;;;;;;;;;4512520;28;19923;-70
2022/02/04 10:35:34;;;;;;;0.50;0.47;;;;;;;;;;4510717;28;31600;-70
2022/02/04 10:38:17;;;;;;;0.82;0.60;;;;;;;;;;4507398;28;20041;-69
2022/02/04 10:40:58;;;;;;;0.40;0.40;;;;;;;;;;4510278;28;20045;-69
2022/02/04 10:43:21;;;;;;;0.60;0.50;;;;;;;;;;4509627;28;20092;-70
2022/02/04 10:48:31;;;;;;;0.65;0.55;;;;;;;;;;4511542;28;20619;-70
2022/02/04 10:53:10;;;;;;;0.52;0.52;;;;;;;;;;4508106;28;20521;-69
2022/02/04 10:56:03;;;;;;;0.47;0.47;;;;;;;;;;4494536;28;20543;-70
2022/02/04 11:00:41;;;;;;;0.80;0.70;;;;;;;;;;4506034;28;20045;-70
2022/02/04 11:02:59;;;;;;;1.42;0.60;;;;;;;;;;4509243;28;20572;-70
2022/02/04 11:05:25;;;;;;;1.27;0.88;;;;;;;;;;4509420;28;20030;-70
2022/02/04 11:10:13;;;;;;;1.85;1.48;;;;;;;;;;4509317;28;20038;-70
2022/02/04 11:34:52;;;;;;;0.63;0.55;;;;;;;;;;4508425;28;20118;-70
2022/02/04 11:52:40;;;;;;;1.45;0.90;;;;;;;;;;4508495;28;20363;-70
2022/02/04 11:54:54;;;;;;;0.50;0.50;;;;;;;;;;4494960;28;20073;-70
2022/02/04 11:57:05;;;;;;;0.73;0.68;;;;;;;;;;4507570;28;20041;-70
2022/02/04 11:59:42;;;;;;;0.98;0.70;;;;;;;;;;4509280;28;20042;-70
2022/02/04 12:01:53;;;;;;;0.60;0.60;;;;;;;;;;4508297;28;20049;-70
2022/02/04 12:04:18;;;;;;;0.50;0.50;;;;;;;;;;4509612;28;20110;-71
2022/02/04 12:06:28;;;;;;;0.57;0.50;;;;;;;;;;4509772;28;20025;-70
2022/02/04 12:08:40;;;;;;;0.33;0.33;;;;;;;;;;4506388;28;20038;-71
2022/02/04 12:10:53;;;;;;;0.55;0.30;;;;;;;;;;4516112;28;20054;-69
2022/02/04 12:13:07;;;;;;;0.50;0.50;;;;;;;;;;4507723;28;20034;-71
2022/02/04 12:15:43;;;;;;;0.35;0.35;;;;;;;;;;4507502;28;20141;-71
2022/02/04 12:18:02;;;;;;;0.45;0.45;;;;;;;;;;4509168;28;20038;-71
2022/02/04 12:20:14;;;;;;;0.40;0.40;;;;;;;;;;4506993;28;20030;-71
2022/02/04 12:22:49;;;;;;;0.85;0.50;;;;;;;;;;4510855;28;21190;-71
2022/02/04 12:24:59;;;;;;;0.50;0.50;;;;;;;;;;4506982;28;20636;-71
2022/02/04 12:27:29;;;;;;;0.40;0.40;;;;;;;;;;4506212;28;20115;-71
2022/02/04 12:29:40;;;;;;;0.82;0.50;;;;;;;;;;4508451;28;20030;-71
2022/02/04 12:31:50;;;;;;;0.47;0.40;;;;;;;;;;4509502;28;22782;-70
2022/02/04 12:34:01;;;;;;;1.00;0.40;;;;;;;;;;4511753;28;20038;-70
2022/02/04 12:36:41;;;;;;;0.57;0.57;;;;;;;;;;4510898;28;20049;-71
2022/02/04 12:39:04;;;;;;;0.63;0.40;;;;;;;;;;4510048;28;20068;-70
2022/02/04 12:41:27;;;;;;;0.50;0.50;;;;;;;;;;4512969;28;20069;-71
2022/02/04 12:43:38;;;;;;;0.30;0.30;;;;;;;;;;4519211;28;20508;-71
2022/02/04 12:45:48;;;;;;;1.07;0.60;;;;;;;;;;4510546;28;20037;-70
2022/02/04 12:48:04;;;;;;;0.80;0.50;;;;;;;;;;4513516;28;20041;-71
2022/02/04 12:50:14;;;;;;;0.52;0.52;;;;;;;;;;4518958;28;20075;-71
2022/02/04 12:52:29;;;;;;;0.57;0.40;;;;;;;;;;4511139;28;38613;-71
2022/02/04 12:54:52;;;;;;;0.40;0.40;;;;;;;;;;4512001;28;20042;-70
2022/02/04 12:57:31;;;;;;;0.50;0.50;;;;;;;;;;4519067;28;20033;-71
2022/02/04 12:59:55;;;;;;;0.40;0.40;;;;;;;;;;4509864;28;20057;-70
2022/02/04 13:02:37;;;;;;;0.47;0.45;;;;;;;;;;4511608;28;20682;-70
2022/02/04 13:07:42;;;;;;;0.85;0.80;;;;;;;;;;4511375;28;20912;-71
2022/02/04 13:09:53;;;;;;;0.80;0.80;;;;;;;;;;4527234;28;20041;-71
2022/02/04 13:12:05;;;;;;;1.27;0.60;;;;;;;;;;4509954;28;20520;-71
2022/02/04 13:14:27;;;;;;;0.73;0.70;;;;;;;;;;4509497;28;20026;-72
2022/02/04 13:16:38;;;;;;;0.63;0.60;;;;;;;;;;4509988;28;20030;-71
2022/02/04 13:18:49;;;;;;;;;;;;;;;;;;4511304;28;20584;-72
2022/02/04 13:20:59;;;;;;;0.98;0.70;;;;;;;;;;4504648;28;19917;-71
2022/02/04 13:23:24;;;;;;;0.50;0.50;;;;;;;;;;4509211;28;43828;-72
2022/02/04 13:25:37;;;;;;;1.05;0.60;;;;;;;;;;4511581;28;20033;-71
2022/02/04 13:28:13;;;;;;;0.75;0.70;;;;;;;;;;4509118;28;20042;-71
2022/02/04 13:30:24;;;;;;;1.10;0.75;;;;;;;;;;4510571;28;21087;-71
2022/02/04 13:32:42;;;;;;;1.13;0.60;;;;;;;;;;4509227;28;20092;-71
2022/02/04 13:34:53;;;;;;;0.93;0.73;;;;;;;;;;4509471;28;20033;-71
2022/02/04 13:37:12;;;;;;;0.70;0.70;;;;;;;;;;4510705;28;20029;-72
2022/02/04 13:41:56;;;;;;;0.50;0.50;;;;;;;;;;4509581;28;20037;-71
2022/02/04 13:46:42;;;;;;;0.88;0.65;;;;;;;;;;4510721;28;20061;-71
2022/02/04 13:51:26;;;;;;;0.68;0.47;;;;;;;;;;4508772;28;20063;-72
2022/02/04 13:53:49;;;;;;;0.60;0.60;;;;;;;;;;4510031;28;20155;-71
2022/02/04 13:56:18;;;;;;;0.40;0.40;;;;;;;;;;4509283;28;20049;-71
2022/02/04 14:03:16;;;;;;;0.40;0.40;;;;;;;;;;4494766;28;20038;-71
2022/02/04 14:05:30;;;;;;;0.70;0.60;;;;;;;;;;4510118;28;20030;-71
2022/02/04 14:07:47;;;;;;;0.98;0.68;;;;;;;;;;4509317;28;20068;-71
2022/02/04 14:10:07;;;;;;;0.60;0.50;;;;;;;;;;4510156;28;20045;-71
2022/02/04 14:12:20;;;;;;;1.08;0.80;;;;;;;;;;4510008;28;20033;-71
2022/02/04 14:14:30;;;;;;;0.50;0.50;;;;;;;;;;4508900;28;20045;-71
2022/02/04 14:16:53;;;;;;;0.73;0.60;;;;;;;;;;4509406;28;20080;-71
2022/02/04 14:19:05;;;;;;;1.75;0.60;;;;;;;;;;4493738;28;20037;-72
2022/02/04 14:21:18;;;;;;;0.40;0.40;;;;;;;;;;4510862;28;20077;-71
2022/02/04 14:23:29;;;;;;;0.60;0.50;;;;;;;;;;4507121;28;20676;-71
2022/02/04 14:25:53;;;;;;;1.02;0.57;;;;;;;;;;4527889;22;20129;-71
2022/02/04 14:28:06;;;;;;;0.40;0.40;;;;;;;;;;4524758;28;20037;-71
2022/02/04 14:30:22;;;;;;;0.40;0.40;;;;;;;;;;4533962;28;20063;-71
2022/02/04 14:32:46;;;;;;;0.40;0.40;;;;;;;;;;4527003;28;20037;-71
2022/02/04 14:35:25;;;;;;;0.60;0.50;;;;;;;;;;4525817;28;20619;-71
2022/02/04 14:37:54;;;;;;;0.70;0.50;;;;;;;;;;4525048;28;20498;-71
2022/02/04 14:53:14;;;;;;;0.80;0.80;;;;;;;;;;4525924;28;20033;-67
2022/02/04 15:00:43;;;;;;;21.30;18.80;;;;;;;;;;4525135;28;20033;-60
2022/02/04 15:05:22;;;;;;;26.92;21.70;;;;;;;;;;4533801;28;20155;-62
2022/02/04 15:07:36;;;;;;;35.30;28.35;;;;;;;;;;4529232;28;20116;-61
2022/02/04 15:09:55;;;;;;;29.30;23.27;;;;;;;;;;4527291;28;20149;-61
2022/02/04 15:12:06;;;;;;;90.50;42.90;;;;;;;;;;4524849;28;20040;-60
2022/02/04 15:14:18;;;;;;;36.23;30.13;;;;;;;;;;4524603;28;20048;-60
2022/02/04 15:16:28;;;;;;;58.03;27.98;;;;;;;;;;4525506;28;20240;-63
2022/02/04 15:18:41;;;;;;;227.20;60.47;;;;;;;;;;4524270;28;20029;-59
2022/02/04 15:20:59;;;;;;;206.00;64.20;;;;;;;;;;4526053;28;20633;-61
2022/02/04 15:23:12;;;;;;;111.13;41.25;;;;;;;;;;4525549;28;21049;-61
2022/02/04 15:25:23;;;;;;;71.72;33.70;;;;;;;;;;4533769;28;20597;-60
2022/02/04 15:27:37;;;;;;;44.65;40.05;;;;;;;;;;4527362;28;20033;-61
2022/02/04 15:29:50;;;;;;;54.53;32.60;;;;;;;;;;4525053;28;20551;-61
2022/02/04 15:32:02;;;;;;;38.45;34.53;;;;;;;;;;4524411;28;20041;-61
2022/02/04 15:34:14;;;;;;;144.43;46.92;;;;;;;;;;4523986;28;20038;-61
2022/02/04 15:36:31;;;;;;;47.30;42.03;;;;;;;;;;4511854;28;20041;-61
2022/02/04 15:38:41;;;;;;;142.98;57.63;;;;;;;;;;4538288;28;20072;-60
2022/02/04 15:40:52;;;;;;;1.57;0.80;;;;;;;;;;4524000;28;23334;-76
2022/02/04 15:43:05;;;;;;;1.40;0.57;;;;;;;;;;4525570;28;20116;-74
2022/02/04 15:47:57;;;;;;;0.70;0.63;;;;;;;;;;4514886;28;20641;-73
2022/02/04 15:52:59;;;;;;;1.30;0.90;;;;;;;;;;4515337;28;19925;-70
2022/02/04 15:57:39;;;;;;;1.10;0.70;;;;;;;;;;4524947;28;20049;-70
2022/02/04 16:00:13;;;;;;;1.53;0.60;;;;;;;;;;4524118;28;20053;-72
2022/02/04 16:02:43;;;;;;;1.30;0.73;;;;;;;;;;4524235;28;20033;-79
2022/02/04 16:04:55;;;;;;;0.93;0.65;;;;;;;;;;4525964;28;20036;-71
2022/02/04 16:07:05;;;;;;;0.85;0.50;;;;;;;;;;4531711;28;20587;-74
2022/02/04 16:09:18;;;;;;;1.03;0.50;;;;;;;;;;4526996;28;20048;-79
2022/02/04 16:11:38;;;;;;;1.08;0.57;;;;;;;;;;4528231;28;20175;-70
2022/02/04 16:13:55;;;;;;;1.45;0.77;;;;;;;;;;4526390;28;20076;-76
2022/02/04 16:18:37;;;;;;;0.68;0.60;;;;;;;;;;4528229;28;20068;-69
2022/02/04 16:21:10;;;;;;;1.50;0.98;;;;;;;;;;4527048;28;21104;-69
2022/02/04 16:23:55;;;;;;;2.17;0.90;;;;;;;;;;4528215;28;21091;-69
2022/02/04 16:26:26;;;;;;;;;;;;;;;;;;4527342;28;20040;-69
2022/02/04 16:28:38;;;;;;;1.38;0.80;;;;;;;;;;4528235;28;19909;-69
2022/02/04 16:30:49;;;;;;;2.97;0.85;;;;;;;;;;4529078;28;20171;-69
2022/02/04 16:32:59;;;;;;;1.00;0.80;;;;;;;;;;4528352;28;20029;-69
2022/02/04 16:35:10;;;;;;;2.20;0.90;;;;;;;;;;4530621;28;20140;-69
2022/02/04 16:39:39;;;;;;;2.40;0.70;;;;;;;;;;4526487;28;20253;-69
2022/02/04 16:41:54;;;;;;;2.03;0.90;;;;;;;;;;4527763;28;20022;-68
2022/02/04 16:44:05;;;;;;;0.90;0.80;;;;;;;;;;4526999;28;20021;-68
2022/02/04 16:46:15;;;;;;;3.40;0.83;;;;;;;;;;4529116;28;20025;-69
2022/02/04 16:48:26;;;;;;;1.63;0.93;;;;;;;;;;4527727;28;20084;-69
2022/02/04 16:50:36;;;;;;;3.17;1.00;;;;;;;;;;4524847;28;42201;-69
2022/02/04 16:52:51;;;;;;;2.30;0.90;;;;;;;;;;4512175;28;21268;-69
2022/02/04 16:55:06;;;;;;;2.13;1.00;;;;;;;;;;4525798;28;20120;-69
2022/02/04 16:57:16;;;;;;;1.88;0.88;;;;;;;;;;4513537;28;20025;-69
2022/02/04 16:59:27;;;;;;;2.67;0.70;;;;;;;;;;4528631;28;20037;-69
2022/02/04 17:01:37;;;;;;;1.53;0.73;;;;;;;;;;4542379;28;20365;-66
2022/02/04 17:03:48;;;;;;;1.93;0.90;;;;;;;;;;4528597;28;20628;-68
2022/02/04 17:06:02;;;;;;;2.43;1.20;;;;;;;;;;4526935;28;20017;-67
2022/02/04 17:08:21;;;;;;;1.27;0.73;;;;;;;;;;4527677;28;20084;-66
2022/02/04 17:10:33;;;;;;;3.83;1.08;;;;;;;;;;4529712;28;20041;-68
2022/02/04 17:12:43;;;;;;;2.67;1.33;;;;;;;;;;4514854;28;20111;-63
2022/02/04 17:14:55;;;;;;;2.20;0.83;;;;;;;;;;4526498;28;20587;-64
2022/02/04 17:17:07;;;;;;;2.55;1.00;;;;;;;;;;4526626;28;20985;-66
2022/02/04 17:19:22;;;;;;;1.00;0.68;;;;;;;;;;4526642;28;20543;-64
2022/02/04 17:21:34;;;;;;;0.77;0.60;;;;;;;;;;4526314;28;20037;-65
2022/02/04 17:23:51;;;;;;;1.13;0.85;;;;;;;;;;4526401;28;20029;-65
2022/02/04 17:26:02;;;;;;;2.05;0.63;;;;;;;;;;4525805;28;20600;-71
2022/02/04 17:28:12;;;;;;;0.57;0.50;;;;;;;;;;4525732;28;30582;-64
2022/02/04 17:30:24;;;;;;;1.73;0.80;;;;;;;;;;4525829;28;40677;-63
2022/02/04 17:32:34;;;;;;;1.63;0.77;;;;;;;;;;4527356;28;20025;-64
2022/02/04 17:34:45;;;;;;;1.53;0.97;;;;;;;;;;4526222;28;20025;-67
2022/02/04 17:36:57;;;;;;;0.80;0.53;;;;;;;;;;4526430;28;29394;-73
2022/02/04 17:39:21;;;;;;;1.80;0.80;;;;;;;;;;4526523;28;20068;-72
2022/02/04 17:41:32;;;;;;;0.85;0.68;;;;;;;;;;4526847;28;20616;-77
2022/02/04 17:43:47;;;;;;;1.50;0.70;;;;;;;;;;4525414;28;35490;-75
2022/02/04 17:45:58;;;;;;;1.13;0.73;;;;;;;;;;4528056;28;20033;-79
2022/02/04 17:48:18;;;;;;;1.20;0.60;;;;;;;;;;4525381;28;20156;-71
2022/02/04 17:50:34;;;;;;;1.08;0.50;;;;;;;;;;4527195;28;20084;-70
2022/02/04 17:52:49;;;;;;;0.98;0.50;;;;;;;;;;4526303;28;20075;-81
2022/02/04 17:55:05;;;;;;;0.40;0.40;;;;;;;;;;4525120;28;20034;-73
2022/02/04 17:57:21;;;;;;;0.55;0.40;;;;;;;;;;4526669;28;20009;-68
2022/02/04 18:00:07;;;;;;;0.55;0.30;;;;;;;;;;4526611;28;20034;-74
2022/02/04 18:02:23;;;;;;;0.32;0.30;;;;;;;;;;4525940;28;20030;-74
2022/02/04 18:07:14;;;;;;;0.28;0.28;;;;;;;;;;4525615;28;20826;-73
2022/02/04 18:09:26;;;;;;;0.40;0.20;;;;;;;;;;4527756;28;20031;-70
2022/02/04 18:11:37;;;;;;;0.30;0.30;;;;;;;;;;4526083;28;20037;-68
2022/02/04 18:13:47;;;;;;;0.20;0.20;;;;;;;;;;4527121;28;20044;-63
2022/02/04 18:16:00;;;;;;;0.20;0.20;;;;;;;;;;4526231;28;44471;-63
2022/02/04 18:18:13;;;;;;;0.20;0.20;;;;;;;;;;4524760;28;20025;-63
2022/02/04 18:20:24;;;;;;;0.20;0.20;;;;;;;;;;4524810;28;20110;-62
2022/02/04 18:22:35;;;;;;;0.20;0.20;;;;;;;;;;4524340;28;20588;-62
2022/02/04 18:24:45;;;;;;;1.13;0.30;;;;;;;;;;4525823;28;20040;-64
2022/02/04 18:26:56;;;;;;;0.47;0.30;;;;;;;;;;4532941;28;43694;-64
2022/02/04 18:29:06;;;;;;;0.23;0.23;;;;;;;;;;4526832;28;20033;-65
2022/02/04 18:31:17;;;;;;;0.33;0.30;;;;;;;;;;4524684;28;20034;-65
2022/02/04 18:33:27;;;;;;;0.20;0.20;;;;;;;;;;4525660;28;20030;-65
2022/02/04 18:35:39;;;;;;;0.30;0.30;;;;;;;;;;4527531;28;21645;-66
2022/02/04 18:38:04;;;;;;;0.30;0.30;;;;;;;;;;4524388;28;20029;-66
2022/02/04 18:43:09;;;;;;;0.40;0.30;;;;;;;;;;4526692;28;20029;-65
2022/02/04 18:45:23;;;;;;;0.30;0.30;;;;;;;;;;4522925;28;20034;-61
2022/02/04 18:50:08;;;;;;;0.30;0.30;;;;;;;;;;4525491;28;20059;-61
2022/02/04 18:52:33;;;;;;;0.30;0.30;;;;;;;;;;4523503;28;20088;-60
2022/02/04 18:55:28;;;;;;;0.32;0.30;;;;;;;;;;4523520;28;20064;-61
2022/02/04 18:57:20;;;;;;;0.80;0.40;;;;;;;;;;4524934;28;20037;-64
2022/02/04 18:59:39;;;;;;;0.30;0.30;;;;;;;;;;4524741;28;20045;-64
2022/02/04 19:01:49;;;;;;;1.08;0.30;;;;;;;;;;4533514;28;20025;-66
2022/02/04 19:04:04;;;;;;;0.30;0.30;;;;;;;;;;4525344;28;20030;-66
2022/02/04 19:06:22;;;;;;;0.22;0.22;;;;;;;;;;4525640;28;20029;-63